Time;durP1;ratioP1;P1;durP2;ratioP2;P2;SDS_P1;SDS_P2;PMS_P1;PMS_P2;Temp;Humidity;BMP_temperature;BMP_pressure;BME280_temperature;BME280_humidity;BME280_pressure;Samples;Min_cycle;Max_cycle;Signal;HPM_P1;HPM_P2
2022/09/29 00:02:23;;;;;;;;;;;;;;;;;;5011205;28;20368;-70
2022/09/29 00:04:49;;;;;;;;;;;;;;;;;;5011168;28;20384;-70
2022/09/29 00:07:15;;;;;;;;;;;;;;;;;;5026685;28;20398;-71
2022/09/29 00:09:41;;;;;;;;;;;;;;;;;;5030272;28;20371;-71
2022/09/29 00:12:07;;;;;;;;;;;;;;;;;;5019367;28;20413;-70
2022/09/29 00:14:32;;;;;;;;;;;;;;;;;;5011355;28;20408;-72
2022/09/29 00:16:58;;;;;;;;;;;;;;;;;;5011761;28;20385;-71
2022/09/29 00:19:26;;;;;;;;;;;;;;;;;;5014463;28;21145;-70
2022/09/29 00:21:52;;;;;;;;;;;;;;;;;;5014872;28;20440;-70
2022/09/29 00:24:17;;;;;;;;;;;;;;;;;;5014461;28;20850;-69
2022/09/29 00:26:45;;;;;;;;;;;;;;;;;;5014174;28;20408;-69
2022/09/29 00:29:11;;;;;;;;;;;;;;;;;;5014654;28;20873;-70
2022/09/29 00:31:37;;;;;;;;;;;;;;;;;;5014384;28;20390;-70
2022/09/29 00:34:03;;;;;;;;;;;;;;;;;;5013899;28;20493;-68
2022/09/29 00:36:29;;;;;;;;;;;;;;;;;;5014366;28;20911;-70
2022/09/29 00:38:55;;;;;;;;;;;;;;;;;;5020620;28;20366;-69
2022/09/29 00:41:23;;;;;;;;;;;;;;;;;;5033276;28;20719;-69
2022/09/29 00:43:49;;;;;;;;;;;;;;;;;;5007714;28;20361;-69
2022/09/29 00:46:14;;;;;;;;;;;;;;;;;;5033031;28;20375;-69
2022/09/29 00:48:40;;;;;;;;;;;;;;;;;;5032983;28;20727;-69
2022/09/29 00:51:06;;;;;;;;;;;;;;;;;;5032653;28;20368;-71
2022/09/29 00:53:32;;;;;;;;;;;;;;;;;;5033146;28;20366;-71
2022/09/29 00:55:58;;;;;;;;;;;;;;;;;;5033184;28;20363;-70
2022/09/29 00:58:24;;;;;;;;;;;;;;;;;;5033050;28;20406;-71
2022/09/29 01:00:50;;;;;;;;;;;;;;;;;;5032638;28;20389;-69
2022/09/29 01:03:16;;;;;;;;;;;;;;;;;;5032620;28;20378;-69
2022/09/29 01:05:42;;;;;;;;;;;;;;;;;;5032672;28;20363;-70
2022/09/29 01:08:08;;;;;;;;;;;;;;;;;;5014610;28;20368;-69
2022/09/29 01:10:34;;;;;;;;;;;;;;;;;;5030449;28;20739;-71
2022/09/29 01:13:00;;;;;;;;;;;;;;;;;;5028549;28;20405;-71
2022/09/29 01:15:28;;;;;;;;;;;;;;;;;;5013891;28;20362;-69
2022/09/29 01:17:54;;;;;;;;;;;;;;;;;;5013628;28;20812;-69
2022/09/29 01:20:21;;;;;;;;;;;;;;;;;;5013610;28;20376;-69
2022/09/29 01:22:47;;;;;;;;;;;;;;;;;;5013498;28;20374;-69
2022/09/29 01:25:13;;;;;;;;;;;;;;;;;;5012854;28;20407;-70
2022/09/29 01:27:38;;;;;;;;;;;;;;;;;;5013878;28;20370;-70
2022/09/29 01:30:04;;;;;;;;;;;;;;;;;;5012947;28;20396;-71
2022/09/29 01:32:30;;;;;;;;;;;;;;;;;;5012755;28;20493;-71
2022/09/29 01:34:56;;;;;;;;;;;;;;;;;;5010537;28;20450;-70
2022/09/29 01:37:22;;;;;;;;;;;;;;;;;;5008665;28;20369;-70
2022/09/29 01:39:48;;;;;;;;;;;;;;;;;;5019166;28;20359;-69
2022/09/29 01:42:14;;;;;;;;;;;;;;;;;;5031968;28;20420;-70
2022/09/29 01:44:40;;;;;;;;;;;;;;;;;;5031950;28;20367;-69
2022/09/29 01:47:05;;;;;;;;;;;;;;;;;;5014561;28;20730;-70
2022/09/29 01:49:31;;;;;;;;;;;;;;;;;;5012114;28;20440;-71
2022/09/29 01:51:57;;;;;;;;;;;;;;;;;;5013161;28;20878;-70
2022/09/29 01:54:23;;;;;;;;;;;;;;;;;;5012829;28;20370;-70
2022/09/29 01:56:49;;;;;;;;;;;;;;;;;;5013159;28;20368;-70
2022/09/29 01:59:15;;;;;;;;;;;;;;;;;;5012779;28;20370;-69
2022/09/29 02:01:41;;;;;;;;;;;;;;;;;;5012659;28;20369;-70
2022/09/29 02:04:07;;;;;;;;;;;;;;;;;;5011985;28;20822;-69
2022/09/29 02:06:35;;;;;;;;;;;;;;;;;;5012962;28;20441;-70
2022/09/29 02:09:01;;;;;;;;;;;;;;;;;;5012512;28;20378;-69
2022/09/29 02:11:27;;;;;;;;;;;;;;;;;;5012069;28;20401;-69
2022/09/29 02:13:53;;;;;;;;;;;;;;;;;;5012276;28;20373;-69
2022/09/29 02:16:19;;;;;;;;;;;;;;;;;;5012760;28;20374;-69
2022/09/29 02:18:45;;;;;;;;;;;;;;;;;;5012403;28;20374;-71
2022/09/29 02:21:10;;;;;;;;;;;;;;;;;;5012281;28;20469;-71
2022/09/29 02:23:36;;;;;;;;;;;;;;;;;;5012249;28;20357;-70
2022/09/29 02:26:02;;;;;;;;;;;;;;;;;;5012290;28;20750;-70
2022/09/29 02:28:28;;;;;;;;;;;;;;;;;;5012512;28;20415;-71
2022/09/29 02:30:54;;;;;;;;;;;;;;;;;;5011936;28;20738;-70
2022/09/29 02:33:20;;;;;;;;;;;;;;;;;;5011979;28;20408;-70
2022/09/29 02:35:46;;;;;;;;;;;;;;;;;;5011690;28;20490;-70
2022/09/29 02:38:12;;;;;;;;;;;;;;;;;;5012019;28;20900;-70
2022/09/29 02:40:38;;;;;;;;;;;;;;;;;;5025301;28;20377;-69
2022/09/29 02:43:03;;;;;;;;;;;;;;;;;;5031241;28;20367;-70
2022/09/29 02:45:29;;;;;;;;;;;;;;;;;;5030920;28;20370;-69
2022/09/29 02:47:55;;;;;;;;;;;;;;;;;;5030930;28;20363;-68
2022/09/29 02:50:21;;;;;;;;;;;;;;;;;;5030678;28;20440;-70
2022/09/29 02:52:47;;;;;;;;;;;;;;;;;;5031008;28;20434;-70
2022/09/29 02:55:13;;;;;;;;;;;;;;;;;;5031252;28;20371;-69
2022/09/29 02:57:39;;;;;;;;;;;;;;;;;;5031227;28;20358;-69
2022/09/29 03:00:09;;;;;;;;;;;;;;;;;;5030691;28;20363;-69
2022/09/29 03:02:35;;;;;;;;;;;;;;;;;;5030587;28;20454;-69
2022/09/29 03:05:01;;;;;;;;;;;;;;;;;;5021521;28;20449;-69
2022/09/29 03:07:27;;;;;;;;;;;;;;;;;;5011748;28;20862;-70
2022/09/29 03:09:53;;;;;;;;;;;;;;;;;;5011789;28;20370;-70
2022/09/29 03:12:19;;;;;;;;;;;;;;;;;;5011709;28;20901;-69
2022/09/29 03:14:45;;;;;;;;;;;;;;;;;;5011703;28;20377;-69
2022/09/29 03:17:11;;;;;;;;;;;;;;;;;;5006275;28;20742;-70
2022/09/29 03:19:37;;;;;;;;;;;;;;;;;;5011635;28;20370;-69
2022/09/29 03:22:03;;;;;;;;;;;;;;;;;;5005461;28;20370;-70
2022/09/29 03:24:30;;;;;;;;;;;;;;;;;;5010336;28;20695;-70
2022/09/29 03:26:56;;;;;;;;;;;;;;;;;;4699179;28;20372;-71
2022/09/29 03:29:22;;;;;;;;;;;;;;;;;;4702778;28;20388;-72
2022/09/29 03:31:48;;;;;;;;;;;;;;;;;;4703919;28;20222;-72
2022/09/29 03:34:14;;;;;;;;;;;;;;;;;;4702994;28;20211;-72
2022/09/29 03:36:43;;;;;;;;;;;;;;;;;;4866169;28;20606;-70
2022/09/29 03:39:09;;;;;;;;;;;;;;;;;;5014396;28;20367;-71
2022/09/29 03:41:34;;;;;;;;;;;;;;;;;;5016653;28;20460;-71
2022/09/29 03:44:00;;;;;;;;;;;;;;;;;;5010360;28;20367;-69
2022/09/29 03:46:26;;;;;;;;;;;;;;;;;;5007920;28;20786;-69
2022/09/29 03:48:52;;;;;;;;;;;;;;;;;;5012313;28;20377;-70
2022/09/29 03:51:18;;;;;;;;;;;;;;;;;;5012609;28;20374;-70
2022/09/29 03:53:44;;;;;;;;;;;;;;;;;;5015188;28;20419;-71
2022/09/29 03:56:10;;;;;;;;;;;;;;;;;;5014992;28;20432;-70
2022/09/29 03:58:36;;;;;;;;;;;;;;;;;;5014712;28;20423;-68
2022/09/29 04:01:02;;;;;;;;;;;;;;;;;;5015162;28;20453;-68
2022/09/29 04:03:28;;;;;;;;;;;;;;;;;;5014715;28;20374;-69
2022/09/29 04:05:53;;;;;;;;;;;;;;;;;;5015526;28;20377;-69
2022/09/29 04:08:19;;;;;;;;;;;;;;;;;;5014592;28;20484;-71
2022/09/29 04:10:45;;;;;;;;;;;;;;;;;;5014926;28;20373;-70
2022/09/29 04:13:11;;;;;;;;;;;;;;;;;;5014023;28;20428;-70
2022/09/29 04:15:37;;;;;;;;;;;;;;;;;;5015402;28;20460;-70
2022/09/29 04:18:03;;;;;;;;;;;;;;;;;;5014482;28;20460;-69
2022/09/29 04:20:29;;;;;;;;;;;;;;;;;;5014480;28;20377;-70
2022/09/29 04:22:55;;;;;;;;;;;;;;;;;;5014937;28;20406;-70
2022/09/29 04:25:21;;;;;;;;;;;;;;;;;;5014800;28;20847;-70
2022/09/29 04:27:47;;;;;;;;;;;;;;;;;;5014224;28;20461;-69
2022/09/29 04:30:12;;;;;;;;;;;;;;;;;;5014249;28;20370;-70
2022/09/29 04:32:38;;;;;;;;;;;;;;;;;;5014193;28;20397;-69
2022/09/29 04:35:04;;;;;;;;;;;;;;;;;;5014384;28;20895;-71
2022/09/29 04:37:30;;;;;;;;;;;;;;;;;;5014572;28;20366;-71
2022/09/29 04:39:56;;;;;;;;;;;;;;;;;;5023527;28;20374;-70
2022/09/29 04:42:22;;;;;;;;;;;;;;;;;;5013519;28;20894;-71
2022/09/29 04:44:48;;;;;;;;;;;;;;;;;;5013951;28;20377;-71
2022/09/29 04:47:14;;;;;;;;;;;;;;;;;;5014187;28;20386;-71
2022/09/29 04:49:40;;;;;;;;;;;;;;;;;;5018148;28;20379;-70
2022/09/29 04:52:06;;;;;;;;;;;;;;;;;;5033020;28;20817;-71
2022/09/29 04:54:32;;;;;;;;;;;;;;;;;;5032787;28;20367;-71
2022/09/29 04:56:58;;;;;;;;;;;;;;;;;;5032809;28;20750;-71
2022/09/29 04:59:24;;;;;;;;;;;;;;;;;;5032871;28;20371;-71
2022/09/29 05:01:50;;;;;;;;;;;;;;;;;;5017613;28;20376;-71
2022/09/29 05:04:15;;;;;;;;;;;;;;;;;;5012151;28;20374;-71
2022/09/29 05:06:41;;;;;;;;;;;;;;;;;;5013542;28;20402;-71
2022/09/29 05:09:07;;;;;;;;;;;;;;;;;;5013772;28;20366;-71
2022/09/29 05:11:33;;;;;;;;;;;;;;;;;;5013421;28;20402;-71
2022/09/29 05:13:59;;;;;;;;;;;;;;;;;;5020217;28;20416;-71
2022/09/29 05:16:25;;;;;;;;;;;;;;;;;;5032958;28;20874;-72
2022/09/29 05:18:51;;;;;;;;;;;;;;;;;;5032172;28;20395;-71
2022/09/29 05:21:17;;;;;;;;;;;;;;;;;;5032280;28;20363;-71
2022/09/29 05:23:43;;;;;;;;;;;;;;;;;;5032774;28;20390;-71
2022/09/29 05:26:09;;;;;;;;;;;;;;;;;;5022013;28;20453;-71
2022/09/29 05:28:35;;;;;;;;;;;;;;;;;;5012991;28;20378;-70
2022/09/29 05:31:01;;;;;;;;;;;;;;;;;;5013250;28;20366;-71
2022/09/29 05:33:26;;;;;;;;;;;;;;;;;;5012518;28;20984;-70
2022/09/29 05:35:52;;;;;;;;;;;;;;;;;;5012849;28;20409;-70
2022/09/29 05:38:19;;;;;;;;;;;;;;;;;;5013399;28;20374;-70
2022/09/29 05:40:45;;;;;;;;;;;;;;;;;;5022339;28;20374;-71
2022/09/29 05:43:11;;;;;;;;;;;;;;;;;;5013449;28;20368;-71
2022/09/29 05:45:37;;;;;;;;;;;;;;;;;;5013327;28;20445;-70
2022/09/29 05:48:03;;;;;;;;;;;;;;;;;;5012922;28;20366;-70
2022/09/29 05:50:30;;;;;;;;;;;;;;;;;;5012770;28;20426;-71
2022/09/29 05:52:56;;;;;;;;;;;;;;;;;;5012893;28;20977;-70
2022/09/29 05:55:23;;;;;;;;;;;;;;;;;;5012563;28;20374;-71
2022/09/29 05:57:48;;;;;;;;;;;;;;;;;;5012659;28;20366;-69
2022/09/29 06:00:14;;;;;;;;;;;;;;;;;;5012962;28;20423;-71
2022/09/29 06:02:40;;;;;;;;;;;;;;;;;;5011540;28;20433;-70
2022/09/29 06:05:06;;;;;;;;;;;;;;;;;;5012610;28;20377;-70
2022/09/29 06:07:32;;;;;;;;;;;;;;;;;;5012838;28;20365;-70
2022/09/29 06:09:58;;;;;;;;;;;;;;;;;;5012206;28;20449;-69
2022/09/29 06:12:24;;;;;;;;;;;;;;;;;;5025689;28;20861;-71
2022/09/29 06:14:50;;;;;;;;;;;;;;;;;;5030600;28;20374;-71
2022/09/29 06:17:16;;;;;;;;;;;;;;;;;;5012921;28;20831;-71
2022/09/29 06:19:41;;;;;;;;;;;;;;;;;;5012697;28;20392;-72
2022/09/29 06:22:07;;;;;;;;;;;;;;;;;;5012670;28;20370;-71
2022/09/29 06:24:33;;;;;;;;;;;;;;;;;;5012110;28;20377;-72
2022/09/29 06:26:59;;;;;;;;;;;;;;;;;;5012323;28;20461;-70
2022/09/29 06:29:25;;;;;;;;;;;;;;;;;;5012171;28;20397;-70
2022/09/29 06:31:52;;;;;;;;;;;;;;;;;;5012126;28;20436;-70
2022/09/29 06:34:18;;;;;;;;;;;;;;;;;;5012221;28;20413;-71
2022/09/29 06:39:28;;;;;;;;;;;;;;;;;;5002292;28;20443;-70
2022/09/29 06:41:55;;;;;;;;;;;;;;;;;;5031213;28;20374;-71
2022/09/29 06:44:21;;;;;;;;;;;;;;;;;;4963904;28;20553;-72
2022/09/29 06:46:47;;;;;;;;;;;;;;;;;;4930584;28;20332;-70
2022/09/29 06:49:14;;;;;;;;;;;;;;;;;;5011322;28;20381;-71
2022/09/29 06:51:40;;;;;;;;;;;;;;;;;;4969484;28;20556;-69
2022/09/29 06:54:05;;;;;;;;;;;;;;;;;;4699698;28;20217;-69
2022/09/29 06:56:31;;;;;;;;;;;;;;;;;;4713325;28;20696;-68
2022/09/29 06:58:57;;;;;;;;;;;;;;;;;;4721011;28;20302;-70
2022/09/29 07:01:23;;;;;;;;;;;;;;;;;;4707014;28;20231;-68
2022/09/29 07:03:49;;;;;;;;;;;;;;;;;;4699356;28;20209;-70
2022/09/29 07:06:15;;;;;;;;;;;;;;;;;;4688338;28;20256;-62
2022/09/29 07:08:41;;;;;;;;;;;;;;;;;;4695129;28;20320;-64
2022/09/29 07:11:07;;;;;;;;;;;;;;;;;;4711417;28;20232;-63
2022/09/29 07:13:32;;;;;;;;;;;;;;;;;;4695843;28;20737;-63
2022/09/29 07:15:58;;;;;;;;;;;;;;;;;;4700189;28;20290;-61
2022/09/29 07:18:25;;;;;;;;;;;;;;;;;;4697074;28;20303;-63
2022/09/29 07:20:51;;;;;;;;;;;;;;;;;;4695235;28;20688;-63
2022/09/29 07:23:16;;;;;;;;;;;;;;;;;;4695788;28;20189;-61
2022/09/29 07:25:43;;;;;;;;;;;;;;;;;;4710782;28;20801;-62
2022/09/29 07:28:09;;;;;;;;;;;;;;;;;;4721338;28;20247;-63
2022/09/29 07:30:36;;;;;;;;;;;;;;;;;;4721703;28;20637;-64
2022/09/29 07:33:02;;;;;;;;;;;;;;;;;;4713563;28;20255;-63
2022/09/29 07:35:28;;;;;;;;;;;;;;;;;;4701357;28;20218;-62
2022/09/29 07:37:54;;;;;;;;;;;;;;;;;;4703186;28;20228;-63
2022/09/29 07:40:20;;;;;;;;;;;;;;;;;;4718191;28;20187;-62
2022/09/29 07:42:46;;;;;;;;;;;;;;;;;;4714328;28;20230;-62
2022/09/29 07:45:12;;;;;;;;;;;;;;;;;;4708069;28;20289;-61
2022/09/29 07:47:38;;;;;;;;;;;;;;;;;;4701907;28;20257;-63
2022/09/29 07:50:04;;;;;;;;;;;;;;;;;;4703530;28;20230;-63
2022/09/29 07:52:30;;;;;;;;;;;;;;;;;;4705259;28;20614;-64
2022/09/29 07:54:56;;;;;;;;;;;;;;;;;;4707916;28;20183;-63
2022/09/29 07:57:22;;;;;;;;;;;;;;;;;;4708985;28;20637;-62
2022/09/29 07:59:48;;;;;;;;;;;;;;;;;;4716149;28;20190;-63
2022/09/29 08:02:14;;;;;;;;;;;;;;;;;;4698353;28;20337;-62
2022/09/29 08:04:40;;;;;;;;;;;;;;;;;;4699122;28;20198;-63
2022/09/29 08:07:06;;;;;;;;;;;;;;;;;;4715872;28;20195;-62
2022/09/29 08:09:32;;;;;;;;;;;;;;;;;;4717803;28;20233;-64
2022/09/29 08:11:58;;;;;;;;;;;;;;;;;;4709964;28;20204;-63
2022/09/29 08:14:24;;;;;;;;;;;;;;;;;;4699451;28;20806;-62
2022/09/29 08:16:50;;;;;;;;;;;;;;;;;;4697857;28;20227;-63
2022/09/29 08:19:16;;;;;;;;;;;;;;;;;;4710958;28;20230;-63
2022/09/29 08:21:42;;;;;;;;;;;;;;;;;;4716344;28;20250;-64
2022/09/29 08:24:08;;;;;;;;;;;;;;;;;;4700815;28;20266;-63
2022/09/29 08:26:34;;;;;;;;;;;;;;;;;;4702797;28;20188;-63
2022/09/29 08:29:00;;;;;;;;;;;;;;;;;;4707428;28;20196;-63
2022/09/29 08:31:26;;;;;;;;;;;;;;;;;;4711531;28;20178;-61
2022/09/29 08:33:52;;;;;;;;;;;;;;;;;;4711940;28;20300;-62
2022/09/29 08:36:18;;;;;;;;;;;;;;;;;;4729627;28;20183;-63
2022/09/29 08:38:43;;;;;;;;;;;;;;;;;;4727679;28;20195;-63
2022/09/29 08:41:09;;;;;;;;;;;;;;;;;;4723569;28;20183;-62
2022/09/29 08:43:35;;;;;;;;;;;;;;;;;;4712789;28;20217;-63
2022/09/29 08:46:01;;;;;;;;;;;;;;;;;;4712303;28;20217;-63
2022/09/29 08:48:27;;;;;;;;;;;;;;;;;;4708943;28;20654;-61
2022/09/29 08:50:55;;;;;;;;;;;;;;;;;;4706623;28;20325;-61
2022/09/29 08:53:21;;;;;;;;;;;;;;;;;;4707928;28;20316;-62
2022/09/29 08:55:47;;;;;;;;;;;;;;;;;;4705312;28;20654;-61
2022/09/29 08:58:13;;;;;;;;;;;;;;;;;;4703224;28;20560;-63
2022/09/29 09:00:40;;;;;;;;;;;;;;;;;;4715387;28;20712;-64
2022/09/29 09:03:06;;;;;;;;;;;;;;;;;;4701859;28;20276;-63
2022/09/29 09:05:32;;;;;;;;;;;;;;;;;;4721559;28;20227;-62
2022/09/29 09:07:58;;;;;;;;;;;;;;;;;;4720659;28;20189;-62
2022/09/29 09:10:24;;;;;;;;;;;;;;;;;;4723199;28;20846;-63
2022/09/29 09:12:50;;;;;;;;;;;;;;;;;;4721387;28;20241;-63
2022/09/29 09:15:16;;;;;;;;;;;;;;;;;;4722496;28;20251;-63
2022/09/29 09:17:42;;;;;;;;;;;;;;;;;;4706283;28;20274;-63
2022/09/29 09:20:09;;;;;;;;;;;;;;;;;;4705613;28;20219;-62
2022/09/29 09:22:34;;;;;;;;;;;;;;;;;;4704518;28;20187;-62
2022/09/29 09:25:00;;;;;;;;;;;;;;;;;;4705732;28;20763;-61
2022/09/29 09:27:26;;;;;;;;;;;;;;;;;;4705237;28;20248;-64
2022/09/29 09:29:52;;;;;;;;;;;;;;;;;;4706976;28;20270;-62
2022/09/29 09:32:20;;;;;;;;;;;;;;;;;;4705245;28;20715;-62
2022/09/29 09:34:46;;;;;;;;;;;;;;;;;;4702987;28;20724;-63
2022/09/29 09:37:12;;;;;;;;;;;;;;;;;;4706726;28;20263;-62
2022/09/29 09:39:38;;;;;;;;;;;;;;;;;;4712082;28;20195;-62
2022/09/29 09:42:04;;;;;;;;;;;;;;;;;;4721468;28;20172;-63
2022/09/29 09:44:30;;;;;;;;;;;;;;;;;;4718431;28;20324;-62
2022/09/29 09:46:56;;;;;;;;;;;;;;;;;;4702197;28;20261;-63
2022/09/29 09:49:22;;;;;;;;;;;;;;;;;;4704257;28;20318;-62
2022/09/29 09:51:48;;;;;;;;;;;;;;;;;;4703298;28;20748;-63
2022/09/29 09:54:14;;;;;;;;;;;;;;;;;;4702931;28;20726;-62
2022/09/29 09:56:42;;;;;;;;;;;;;;;;;;4698350;28;21800;-62
2022/09/29 09:59:08;;;;;;;;;;;;;;;;;;4704798;28;20275;-62
2022/09/29 10:01:34;;;;;;;;;;;;;;;;;;4704781;28;20271;-62
2022/09/29 10:04:00;;;;;;;;;;;;;;;;;;4704222;28;20184;-61
2022/09/29 10:06:26;;;;;;;;;;;;;;;;;;4703149;28;20790;-63
2022/09/29 10:08:52;;;;;;;;;;;;;;;;;;4702738;28;20195;-62
2022/09/29 10:11:18;;;;;;;;;;;;;;;;;;4702468;28;20185;-62
2022/09/29 10:13:44;;;;;;;;;;;;;;;;;;4707496;28;20292;-63
2022/09/29 10:16:10;;;;;;;;;;;;;;;;;;4719571;28;20585;-63
2022/09/29 10:18:36;;;;;;;;;;;;;;;;;;4718606;28;20194;-62
2022/09/29 10:21:01;;;;;;;;;;;;;;;;;;4720313;28;20231;-62
2022/09/29 10:23:27;;;;;;;;;;;;;;;;;;4718325;28;20230;-62
2022/09/29 10:25:53;;;;;;;;;;;;;;;;;;4717914;28;20209;-61
2022/09/29 10:28:19;;;;;;;;;;;;;;;;;;4719826;28;20212;-62
2022/09/29 10:30:45;;;;;;;;;;;;;;;;;;4719362;28;20374;-63
2022/09/29 10:33:11;;;;;;;;;;;;;;;;;;4719976;28;20203;-63
2022/09/29 10:35:37;;;;;;;;;;;;;;;;;;4719720;28;20642;-61
2022/09/29 10:38:03;;;;;;;;;;;;;;;;;;4719634;28;20187;-62
2022/09/29 10:40:29;;;;;;;;;;;;;;;;;;4717023;28;20762;-62
2022/09/29 10:42:54;;;;;;;;;;;;;;;;;;4718552;28;20199;-62
2022/09/29 10:45:20;;;;;;;;;;;;;;;;;;4837963;28;19956;-62
2022/09/29 10:47:47;;;;;;;;;;;;;;;;;;5030987;28;20002;-63
2022/09/29 10:50:13;;;;;;;;;;;;;;;;;;5030607;28;20340;-62
2022/09/29 10:52:39;;;;;;;;;;;;;;;;;;5030696;28;20407;-61
2022/09/29 10:55:05;;;;;;;;;;;;;;;;;;5030167;28;20740;-61
2022/09/29 10:57:31;;;;;;;;;;;;;;;;;;5030390;28;20535;-61
2022/09/29 10:59:56;;;;;;;;;;;;;;;;;;5030188;28;20184;-63
2022/09/29 11:02:22;;;;;;;;;;;;;;;;;;5025030;28;20632;-63
2022/09/29 11:04:48;;;;;;;;;;;;;;;;;;5011568;28;20356;-62
2022/09/29 11:07:14;;;;;;;;;;;;;;;;;;5011584;28;20397;-62
2022/09/29 11:09:40;;;;;;;;;;;;;;;;;;5023921;28;20375;-63
2022/09/29 11:12:06;;;;;;;;;;;;;;;;;;5030167;28;20463;-63
2022/09/29 11:14:32;;;;;;;;;;;;;;;;;;5030406;28;20605;-64
2022/09/29 11:16:58;;;;;;;;;;;;;;;;;;5015951;28;20006;-62
2022/09/29 11:19:24;;;;;;;;;;;;;;;;;;5009511;28;19924;-63
2022/09/29 11:21:50;;;;;;;;;;;;;;;;;;5010651;28;19919;-63
2022/09/29 11:24:16;;;;;;;;;;;;;;;;;;5005380;28;20606;-63
2022/09/29 11:26:42;;;;;;;;;;;;;;;;;;5003254;28;19936;-63
2022/09/29 11:29:08;;;;;;;;;;;;;;;;;;5008899;28;20027;-62
2022/09/29 11:31:34;;;;;;;;;;;;;;;;;;5006997;28;20330;-62
2022/09/29 11:34:00;;;;;;;;;;;;;;;;;;5009719;28;19957;-62
2022/09/29 11:36:26;;;;;;;;;;;;;;;;;;5006409;28;19932;-62
2022/09/29 11:38:52;;;;;;;;;;;;;;;;;;5009040;28;19970;-62
2022/09/29 11:41:18;;;;;;;;;;;;;;;;;;5008291;28;19924;-62
2022/09/29 11:43:44;;;;;;;;;;;;;;;;;;5013672;28;19916;-63
2022/09/29 11:46:10;;;;;;;;;;;;;;;;;;5016171;28;20411;-63
2022/09/29 11:48:36;;;;;;;;;;;;;;;;;;5008901;28;19924;-63
2022/09/29 11:51:03;;;;;;;;;;;;;;;;;;5018025;28;19925;-63
2022/09/29 11:53:29;;;;;;;;;;;;;;;;;;5005714;28;19956;-61
2022/09/29 11:55:54;;;;;;;;;;;;;;;;;;5008166;28;20474;-61
2022/09/29 11:58:21;;;;;;;;;;;;;;;;;;5004397;28;20028;-61
2022/09/29 12:00:46;;;;;;;;;;;;;;;;;;5006850;28;19992;-61
2022/09/29 12:03:12;;;;;;;;;;;;;;;;;;5006508;28;20357;-62
2022/09/29 12:05:38;;;;;;;;;;;;;;;;;;5009634;28;19950;-61
2022/09/29 12:08:04;;;;;;;;;;;;;;;;;;5005564;28;20042;-61
2022/09/29 12:10:30;;;;;;;;;;;;;;;;;;5008657;28;19955;-61
2022/09/29 12:12:56;;;;;;;;;;;;;;;;;;5009295;28;19991;-61
2022/09/29 12:15:22;;;;;;;;;;;;;;;;;;5020603;28;20836;-62
2022/09/29 12:17:48;;;;;;;;;;;;;;;;;;5022747;28;19956;-63
2022/09/29 12:20:14;;;;;;;;;;;;;;;;;;5026064;28;19956;-60
2022/09/29 12:22:40;;;;;;;;;;;;;;;;;;5013741;28;19956;-61
2022/09/29 12:25:05;;;;;;;;;;;;;;;;;;5009165;28;20344;-62
2022/09/29 12:27:31;;;;;;;;;;;;;;;;;;5010478;28;19960;-64
2022/09/29 12:29:57;;;;;;;;;;;;;;;;;;5018940;28;19956;-62
2022/09/29 12:32:23;;;;;;;;;;;;;;;;;;5017519;28;20027;-61
2022/09/29 12:34:49;;;;;;;;;;;;;;;;;;5010807;28;20464;-63
2022/09/29 12:37:15;;;;;;;;;;;;;;;;;;5010796;28;19964;-62
2022/09/29 12:39:41;;;;;;;;;;;;;;;;;;5013844;28;20014;-62
2022/09/29 12:42:07;;;;;;;;;;;;;;;;;;5011242;28;20623;-61
2022/09/29 12:44:33;;;;;;;;;;;;;;;;;;5006908;28;20400;-62
2022/09/29 12:46:59;;;;;;;;;;;;;;;;;;5010982;28;20370;-61
2022/09/29 12:49:26;;;;;;;;;;;;;;;;;;5009355;28;20370;-59
2022/09/29 12:51:52;;;;;;;;;;;;;;;;;;5012144;28;20405;-61
2022/09/29 12:54:19;;;;;;;;;;;;;;;;;;5008756;28;20373;-63
2022/09/29 12:56:45;;;;;;;;;;;;;;;;;;5003494;28;20382;-62
2022/09/29 12:59:12;;;;;;;;;;;;;;;;;;5006417;28;20378;-63
2022/09/29 13:01:38;;;;;;;;;;;;;;;;;;5007744;28;20362;-61
2022/09/29 13:04:04;;;;;;;;;;;;;;;;;;5006804;28;20376;-61
2022/09/29 13:06:29;;;;;;;;;;;;;;;;;;5007315;28;20228;-62
2022/09/29 13:08:56;;;;;;;;;;;;;;;;;;5004692;28;19924;-61
2022/09/29 13:11:22;;;;;;;;;;;;;;;;;;4960895;28;20123;-61
2022/09/29 13:13:48;;;;;;;;;;;;;;;;;;4698268;28;20234;-61
2022/09/29 13:16:15;;;;;;;;;;;;;;;;;;4703609;28;20254;-62
2022/09/29 13:18:40;;;;;;;;;;;;;;;;;;4703639;28;20205;-62
2022/09/29 13:21:06;;;;;;;;;;;;;;;;;;4698470;28;20235;-61
2022/09/29 13:23:33;;;;;;;;;;;;;;;;;;4698678;28;20299;-63
2022/09/29 13:25:58;;;;;;;;;;;;;;;;;;4699983;28;20275;-63
2022/09/29 13:28:24;;;;;;;;;;;;;;;;;;4696884;28;20594;-62
2022/09/29 13:30:50;;;;;;;;;;;;;;;;;;4701798;28;20189;-62
2022/09/29 13:33:16;;;;;;;;;;;;;;;;;;4699253;28;20721;-61
2022/09/29 13:35:42;;;;;;;;;;;;;;;;;;4702351;28;20335;-63
2022/09/29 13:38:08;;;;;;;;;;;;;;;;;;4705687;28;20255;-63
2022/09/29 13:40:34;;;;;;;;;;;;;;;;;;4711211;28;20247;-62
2022/09/29 13:43:01;;;;;;;;;;;;;;;;;;4702761;28;20325;-64
2022/09/29 13:45:28;;;;;;;;;;;;;;;;;;4702169;28;20245;-61
2022/09/29 13:47:53;;;;;;;;;;;;;;;;;;4715258;28;20217;-60
2022/09/29 13:50:19;;;;;;;;;;;;;;;;;;4715869;28;20776;-60
2022/09/29 13:52:47;;;;;;;;;;;;;;;;;;4696869;28;20226;-60
2022/09/29 13:55:13;;;;;;;;;;;;;;;;;;4693753;28;20615;-61
2022/09/29 13:57:39;;;;;;;;;;;;;;;;;;4706748;28;20182;-61
2022/09/29 14:00:05;;;;;;;;;;;;;;;;;;4699801;28;20236;-61
2022/09/29 14:02:31;;;;;;;;;;;;;;;;;;4696916;28;20229;-60
2022/09/29 14:04:56;;;;;;;;;;;;;;;;;;4712695;28;20184;-60
2022/09/29 14:07:22;;;;;;;;;;;;;;;;;;4716817;28;20840;-62
2022/09/29 14:09:48;;;;;;;;;;;;;;;;;;4718424;28;20208;-61
2022/09/29 14:12:15;;;;;;;;;;;;;;;;;;4705505;28;20224;-62
2022/09/29 14:14:41;;;;;;;;;;;;;;;;;;4700749;28;20795;-62
2022/09/29 14:17:07;;;;;;;;;;;;;;;;;;4699993;28;20274;-61
2022/09/29 14:19:33;;;;;;;;;;;;;;;;;;4710502;28;20231;-61
2022/09/29 14:21:59;;;;;;;;;;;;;;;;;;4696442;28;20201;-62
2022/09/29 14:24:25;;;;;;;;;;;;;;;;;;4697604;28;20214;-63
2022/09/29 14:26:52;;;;;;;;;;;;;;;;;;4698487;28;20187;-60
2022/09/29 14:29:18;;;;;;;;;;;;;;;;;;4704599;28;20291;-61
2022/09/29 14:31:44;;;;;;;;;;;;;;;;;;4699444;28;20260;-62
2022/09/29 14:34:10;;;;;;;;;;;;;;;;;;4699184;28;20676;-62
2022/09/29 14:36:44;;;;;;;;;;;;;;;;;;4699313;28;20173;-61
2022/09/29 14:39:09;;;;;;;;;;;;;;;;;;4701772;28;20199;-61
2022/09/29 14:41:37;;;;;;;;;;;;;;;;;;4702501;28;20205;-60
2022/09/29 14:44:03;;;;;;;;;;;;;;;;;;4701562;28;20227;-61
2022/09/29 14:51:59;;;;;;;;;;;;;;;;;;4703695;28;20196;-61
2022/09/29 14:54:25;;;;;;;;;;;;;;;;;;4700302;28;20182;-61
2022/09/29 14:56:51;;;;;;;;;;;;;;;;;;4699695;28;20246;-61
2022/09/29 14:59:16;;;;;;;;;;;;;;;;;;4696026;28;20197;-61
2022/09/29 15:01:42;;;;;;;;;;;;;;;;;;4694305;28;20241;-61
2022/09/29 15:04:08;;;;;;;;;;;;;;;;;;4697202;28;20210;-62
2022/09/29 15:06:35;;;;;;;;;;;;;;;;;;4711131;28;20231;-61
2022/09/29 15:09:01;;;;;;;;;;;;;;;;;;4696714;28;20215;-60
2022/09/29 15:11:27;;;;;;;;;;;;;;;;;;4697891;28;20634;-62
2022/09/29 15:13:54;;;;;;;;;;;;;;;;;;4698786;28;20228;-62
2022/09/29 15:16:20;;;;;;;;;;;;;;;;;;4695577;28;20648;-60
2022/09/29 15:18:46;;;;;;;;;;;;;;;;;;4702216;28;20218;-61
2022/09/29 15:21:12;;;;;;;;;;;;;;;;;;4713237;28;20185;-61
2022/09/29 15:23:38;;;;;;;;;;;;;;;;;;4708400;28;20386;-62
2022/09/29 15:26:04;;;;;;;;;;;;;;;;;;4698606;28;20708;-62
2022/09/29 15:28:30;;;;;;;;;;;;;;;;;;4715310;28;20338;-62
2022/09/29 15:30:55;;;;;;;;;;;;;;;;;;4698302;28;20242;-60
2022/09/29 15:33:21;;;;;;;;;;;;;;;;;;4698452;28;20225;-62
2022/09/29 15:35:47;;;;;;;;;;;;;;;;;;4968656;28;20291;-61
2022/09/29 15:38:13;;;;;;;;;;;;;;;;;;5014572;28;20465;-61
2022/09/29 15:40:39;;;;;;;;;;;;;;;;;;5010250;28;20372;-60
2022/09/29 15:43:06;;;;;;;;;;;;;;;;;;5018738;28;20450;-60
2022/09/29 15:45:32;;;;;;;;;;;;;;;;;;4987133;28;20941;-61
2022/09/29 15:47:58;;;;;;;;;;;;;;;;;;5007652;28;20374;-61
2022/09/29 15:50:24;;;;;;;;;;;;;;;;;;5010086;28;20373;-62
2022/09/29 15:52:50;;;;;;;;;;;;;;;;;;5015619;28;20405;-63
2022/09/29 15:55:16;;;;;;;;;;;;;;;;;;5014879;28;20718;-62
2022/09/29 15:57:42;;;;;;;;;;;;;;;;;;5014856;28;20385;-61
2022/09/29 16:00:07;;;;;;;;;;;;;;;;;;5014808;28;20381;-62
2022/09/29 16:02:33;;;;;;;;;;;;;;;;;;5014353;28;20753;-63
2022/09/29 16:05:00;;;;;;;;;;;;;;;;;;5014071;28;20461;-63
2022/09/29 16:07:28;;;;;;;;;;;;;;;;;;5012643;28;20375;-62
2022/09/29 16:09:54;;;;;;;;;;;;;;;;;;5010608;28;20461;-63
2022/09/29 16:12:20;;;;;;;;;;;;;;;;;;5008982;28;20580;-62
2022/09/29 16:14:46;;;;;;;;;;;;;;;;;;5014332;28;20396;-64
2022/09/29 16:17:12;;;;;;;;;;;;;;;;;;5014373;28;20376;-62
2022/09/29 16:19:39;;;;;;;;;;;;;;;;;;5023132;28;20371;-65
2022/09/29 16:22:05;;;;;;;;;;;;;;;;;;5023858;28;20381;-61
2022/09/29 16:24:31;;;;;;;;;;;;;;;;;;5026959;28;20373;-63
2022/09/29 16:26:57;;;;;;;;;;;;;;;;;;5030090;28;20849;-62
2022/09/29 16:29:23;;;;;;;;;;;;;;;;;;5013577;28;20401;-62
2022/09/29 16:31:49;;;;;;;;;;;;;;;;;;5032854;28;20453;-63
2022/09/29 16:34:15;;;;;;;;;;;;;;;;;;5030765;28;20422;-62
2022/09/29 16:36:42;;;;;;;;;;;;;;;;;;5011398;28;20385;-63
2022/09/29 16:39:10;;;;;;;;;;;;;;;;;;5021487;28;20411;-61
2022/09/29 16:41:39;;;;;;;;;;;;;;;;;;5032831;28;20461;-61
2022/09/29 16:44:06;;;;;;;;;;;;;;;;;;5032866;28;20442;-60
2022/09/29 16:46:31;;;;;;;;;;;;;;;;;;5032608;28;20375;-62